Alpine Link — V7SZ7 — position and weather

sailwx.info

Track history (hours):
 
Tides and Currents Weather Stations Pressure Air Temp Water Temp Dewpoint Dewpoint Depression Visibility Wind Speed Wind Dir Waves Ship Positions

Alpine Link

Last reported at 2016-Aug-24 11:33 UTC. Time now 2016-Aug-24 16:18 UTC.
Position S 00°18' W 047°48'.

Length 183 m; draft 8 m.

Type: Tanker. MMSI: 538003758.

Date/timePositionNaut miles runAvg speedWind from/ knotsBaromVisibWave heightAir tempDewpointWater temp
2016-Aug-24 11:33S 00°18' W 047°48'6 6.0
2016-Aug-24 10:33S 00°24' W 047°47'7 7.1
2016-Aug-24 09:33S 00°17' W 047°49'5 5.3
2016-Aug-24 08:33S 00°11' W 047°49'1311.2
2016-Aug-24 07:24N 00°02' W 047°49'  
2016-Aug-15 10:27S 27°35' W 044°31'2412.6
2016-Aug-15 08:32S 27°53' W 044°50'1212.7
2016-Aug-15 07:33S 28°02' W 044°60'12012.9
2016-Aug-14 22:19S 29°28' W 046°34'9413.1
2016-Aug-14 15:08S 30°36' W 047°49'  
Track history (hours):
 
Tides and Currents Weather Stations Pressure Air Temp Water Temp Dewpoint Dewpoint Depression Visibility Wind Speed Wind Dir Waves Ship Positions

Alpine Link

Last reported at 2016-Aug-24 11:33 UTC. Time now 2016-Aug-24 16:18 UTC.
Position S 00°18' W 047°48'.

Length 183 m; draft 8 m.

Type: Tanker. MMSI: 538003758.

Date/timePositionNaut miles runAvg speedWind from/ knotsBaromVisibWave heightAir tempDewpointWater temp
2016-Aug-24 11:33S 00°18' W 047°48'6 6.0
2016-Aug-24 10:33S 00°24' W 047°47'7 7.1
2016-Aug-24 09:33S 00°17' W 047°49'5 5.3
2016-Aug-24 08:33S 00°11' W 047°49'1311.2
2016-Aug-24 07:24N 00°02' W 047°49'  
2016-Aug-15 10:27S 27°35' W 044°31'2412.6
2016-Aug-15 08:32S 27°53' W 044°50'1212.7
2016-Aug-15 07:33S 28°02' W 044°60'12012.9
2016-Aug-14 22:19S 29°28' W 046°34'9413.1
2016-Aug-14 15:08S 30°36' W 047°49'  

Dump ship's entire track history